DAL509 KSDF-KCHS
Flight info
| Callsign | DAL509 |
|---|---|
| Flight time | 1h 18m |
| Altitude | 33000 |
| Route | LOKRD1 BILET VXV DEFFN OSPRI7 |
| Aircraft | B739/M-SDE2E3FGHIRWXY/LB1 |
Departure
| Time | 2026-04-29 12:15 |
|---|---|
| Airport | Louisville Muhammad Ali International Airport (KSDF) |
Arrival
| Time | 2026-04-29 13:33 |
|---|---|
| Airport | Charleston International Airport (KCHS) |
| Time | Latitude | Longitude | Altitude | Speed | Heading |
|---|---|---|---|---|---|
| 2026-04-29 11:40 | 38.18308 | -85.74171 | 474 ft | 0 kts | 124° |
| 2026-04-29 12:02 | 38.18309 | -85.74172 | 483 ft | 2 kts | 124° |
| 2026-04-29 12:03 | 38.18323 | -85.74200 | 481 ft | 4 kts | 119° |
| 2026-04-29 12:03 | 38.18336 | -85.74229 | 472 ft | 4 kts | 129° |
| 2026-04-29 12:03 | 38.18353 | -85.74245 | 477 ft | 3 kts | 193° |
| 2026-04-29 12:03 | 38.18377 | -85.74237 | 477 ft | 4 kts | 194° |
| 2026-04-29 12:04 | 38.18383 | -85.74235 | 476 ft | 1 kts | 195° |
| 2026-04-29 12:06 | 38.18378 | -85.74237 | 478 ft | 2 kts | 195° |
| 2026-04-29 12:06 | 38.18359 | -85.74243 | 479 ft | 6 kts | 195° |
| 2026-04-29 12:06 | 38.18308 | -85.74269 | 481 ft | 9 kts | 217° |
| 2026-04-29 12:07 | 38.18270 | -85.74325 | 477 ft | 8 kts | 231° |
| 2026-04-29 12:07 | 38.18202 | -85.74333 | 478 ft | 8 kts | 153° |
| 2026-04-29 12:07 | 38.18167 | -85.74307 | 482 ft | 9 kts | 147° |
| 2026-04-29 12:07 | 38.18118 | -85.74257 | 484 ft | 9 kts | 139° |
| 2026-04-29 12:08 | 38.18069 | -85.74211 | 484 ft | 9 kts | 152° |
| 2026-04-29 12:08 | 38.18015 | -85.74217 | 483 ft | 8 kts | 221° |
| 2026-04-29 12:08 | 38.18005 | -85.74285 | 479 ft | 9 kts | 286° |
| 2026-04-29 12:08 | 38.18026 | -85.74361 | 482 ft | 9 kts | 291° |
| 2026-04-29 12:09 | 38.18046 | -85.74440 | 479 ft | 9 kts | 267° |
| 2026-04-29 12:09 | 38.18000 | -85.74484 | 481 ft | 9 kts | 179° |
| 2026-04-29 12:09 | 38.17933 | -85.74464 | 486 ft | 11 kts | 166° |
| 2026-04-29 12:09 | 38.17846 | -85.74436 | 487 ft | 15 kts | 165° |
| 2026-04-29 12:10 | 38.17729 | -85.74397 | 484 ft | 19 kts | 165° |
| 2026-04-29 12:10 | 38.17595 | -85.74353 | 486 ft | 20 kts | 165° |
| 2026-04-29 12:10 | 38.17464 | -85.74310 | 481 ft | 19 kts | 165° |
| 2026-04-29 12:10 | 38.17337 | -85.74267 | 476 ft | 19 kts | 165° |
| 2026-04-29 12:11 | 38.17213 | -85.74227 | 478 ft | 19 kts | 165° |
| 2026-04-29 12:11 | 38.17074 | -85.74181 | 478 ft | 22 kts | 165° |
| 2026-04-29 12:11 | 38.16928 | -85.74133 | 478 ft | 21 kts | 165° |
| 2026-04-29 12:11 | 38.16786 | -85.74086 | 477 ft | 21 kts | 165° |
| 2026-04-29 12:12 | 38.16649 | -85.74041 | 481 ft | 20 kts | 165° |
| 2026-04-29 12:12 | 38.16516 | -85.73997 | 479 ft | 19 kts | 166° |
| 2026-04-29 12:12 | 38.16387 | -85.73954 | 481 ft | 19 kts | 165° |
| 2026-04-29 12:12 | 38.16263 | -85.73913 | 478 ft | 18 kts | 165° |
| 2026-04-29 12:13 | 38.16142 | -85.73874 | 476 ft | 18 kts | 165° |
| 2026-04-29 12:13 | 38.16026 | -85.73835 | 478 ft | 17 kts | 166° |
| 2026-04-29 12:13 | 38.15921 | -85.73801 | 481 ft | 13 kts | 165° |
| 2026-04-29 12:13 | 38.15849 | -85.73828 | 482 ft | 12 kts | 244° |
| 2026-04-29 12:14 | 38.15847 | -85.73927 | 477 ft | 12 kts | 311° |
| 2026-04-29 12:14 | 38.15928 | -85.73965 | 479 ft | 16 kts | 345° |
| 2026-04-29 12:14 | 38.16237 | -85.74067 | 483 ft | 79 kts | 345° |
| 2026-04-29 12:14 | 38.16980 | -85.74310 | 474 ft | 139 kts | 345° |
| 2026-04-29 12:15 | 38.18070 | -85.74670 | 511 ft | 182 kts | 345° |
| 2026-04-29 12:15 | 38.19302 | -85.75100 | 1073 ft | 183 kts | 345° |
| 2026-04-29 12:15 | 38.20523 | -85.75534 | 1745 ft | 185 kts | 339° |
| 2026-04-29 12:15 | 38.21635 | -85.76304 | 2351 ft | 189 kts | 326° |
| 2026-04-29 12:16 | 38.22834 | -85.77222 | 2611 ft | 213 kts | 326° |
| 2026-04-29 12:16 | 38.24181 | -85.78237 | 2838 ft | 235 kts | 326° |
| 2026-04-29 12:16 | 38.25623 | -85.79310 | 3349 ft | 244 kts | 325° |
| 2026-04-29 12:16 | 38.27133 | -85.80475 | 3753 ft | 259 kts | 317° |
| 2026-04-29 12:17 | 38.28216 | -85.82233 | 4547 ft | 251 kts | 288° |
| 2026-04-29 12:17 | 38.28589 | -85.84360 | 5459 ft | 245 kts | 271° |
| 2026-04-29 12:17 | 38.28553 | -85.86543 | 6233 ft | 249 kts | 265° |
| 2026-04-29 12:17 | 38.28287 | -85.88728 | 6942 ft | 253 kts | 249° |
| 2026-04-29 12:18 | 38.27343 | -85.90631 | 7732 ft | 257 kts | 231° |
| 2026-04-29 12:18 | 38.25988 | -85.92151 | 8535 ft | 264 kts | 220° |
| 2026-04-29 12:18 | 38.24484 | -85.93531 | 9243 ft | 269 kts | 219° |
| 2026-04-29 12:18 | 38.22943 | -85.94908 | 9988 ft | 273 kts | 216° |
| 2026-04-29 12:19 | 38.21122 | -85.95786 | 10430 ft | 297 kts | 192° |
| 2026-04-29 12:19 | 38.18953 | -85.95585 | 10598 ft | 331 kts | 169° |
| 2026-04-29 12:19 | 38.16691 | -85.94624 | 10778 ft | 354 kts | 165° |
| 2026-04-29 12:19 | 38.14314 | -85.93533 | 11080 ft | 369 kts | 165° |
| 2026-04-29 12:20 | 38.11871 | -85.92436 | 11599 ft | 375 kts | 165° |
| 2026-04-29 12:20 | 38.09434 | -85.91186 | 12238 ft | 384 kts | 154° |
| 2026-04-29 12:20 | 38.07399 | -85.88910 | 12862 ft | 399 kts | 130° |
| 2026-04-29 12:20 | 38.06096 | -85.85773 | 13514 ft | 408 kts | 110° |
| 2026-04-29 12:21 | 38.05300 | -85.82297 | 14083 ft | 413 kts | 107° |
| 2026-04-29 12:21 | 38.04515 | -85.78766 | 14552 ft | 419 kts | 108° |
| 2026-04-29 12:21 | 38.03684 | -85.75194 | 15023 ft | 424 kts | 108° |
| 2026-04-29 12:21 | 38.02645 | -85.71688 | 15498 ft | 426 kts | 123° |
| 2026-04-29 12:22 | 38.00789 | -85.68745 | 15989 ft | 421 kts | 143° |
| 2026-04-29 12:22 | 37.98449 | -85.66656 | 16521 ft | 416 kts | 155° |
| 2026-04-29 12:22 | 37.95972 | -85.64777 | 17033 ft | 420 kts | 155° |
| 2026-04-29 12:22 | 37.93463 | -85.62848 | 17510 ft | 426 kts | 154° |
| 2026-04-29 12:23 | 37.90936 | -85.60868 | 18009 ft | 431 kts | 154° |
| 2026-04-29 12:23 | 37.88385 | -85.58845 | 18460 ft | 435 kts | 154° |
| 2026-04-29 12:23 | 37.85816 | -85.56798 | 18900 ft | 437 kts | 154° |
| 2026-04-29 12:23 | 37.83210 | -85.54723 | 19366 ft | 440 kts | 154° |
| 2026-04-29 12:24 | 37.80698 | -85.52725 | 19803 ft | 443 kts | 154° |
| 2026-04-29 12:24 | 37.78079 | -85.50647 | 20266 ft | 446 kts | 155° |
| 2026-04-29 12:24 | 37.75443 | -85.48557 | 20735 ft | 449 kts | 155° |
| 2026-04-29 12:24 | 37.72828 | -85.46488 | 21178 ft | 452 kts | 155° |
| 2026-04-29 12:25 | 37.70121 | -85.44347 | 21618 ft | 455 kts | 155° |
| 2026-04-29 12:25 | 37.67433 | -85.42223 | 22066 ft | 457 kts | 155° |
| 2026-04-29 12:25 | 37.62042 | -85.37968 | 22868 ft | 463 kts | 155° |
| 2026-04-29 12:26 | 37.59306 | -85.35813 | 23287 ft | 466 kts | 155° |
| 2026-04-29 12:26 | 37.56520 | -85.33742 | 23635 ft | 462 kts | 163° |
| 2026-04-29 12:26 | 37.53511 | -85.32626 | 23926 ft | 444 kts | 181° |
| 2026-04-29 12:26 | 37.50452 | -85.32169 | 24345 ft | 443 kts | 182° |
| 2026-04-29 12:27 | 37.47387 | -85.31702 | 24696 ft | 445 kts | 181° |
| 2026-04-29 12:27 | 37.44307 | -85.31211 | 25125 ft | 447 kts | 181° |
| 2026-04-29 12:27 | 37.41214 | -85.30700 | 25476 ft | 449 kts | 181° |
| 2026-04-29 12:27 | 37.38108 | -85.30175 | 25788 ft | 451 kts | 181° |
| 2026-04-29 12:28 | 37.35069 | -85.29656 | 26079 ft | 454 kts | 181° |
| 2026-04-29 12:28 | 37.32007 | -85.29130 | 26360 ft | 457 kts | 181° |
| 2026-04-29 12:28 | 37.28852 | -85.28587 | 26697 ft | 458 kts | 181° |
| 2026-04-29 12:28 | 37.25692 | -85.28043 | 26933 ft | 460 kts | 181° |
| 2026-04-29 12:29 | 37.22515 | -85.27499 | 27246 ft | 462 kts | 181° |
| 2026-04-29 12:29 | 37.19283 | -85.26946 | 27555 ft | 464 kts | 181° |
| 2026-04-29 12:29 | 37.16082 | -85.26399 | 27874 ft | 465 kts | 181° |
| 2026-04-29 12:29 | 37.12869 | -85.25850 | 28157 ft | 467 kts | 181° |
| 2026-04-29 12:30 | 37.09643 | -85.25301 | 28422 ft | 469 kts | 181° |
| 2026-04-29 12:30 | 37.06406 | -85.24749 | 28797 ft | 469 kts | 181° |
| 2026-04-29 12:30 | 37.03227 | -85.24205 | 29292 ft | 466 kts | 181° |
| 2026-04-29 12:30 | 37.00027 | -85.23657 | 29824 ft | 463 kts | 181° |
| 2026-04-29 12:31 | 36.96837 | -85.23114 | 30243 ft | 462 kts | 181° |
| 2026-04-29 12:31 | 36.93654 | -85.22576 | 30579 ft | 462 kts | 181° |
| 2026-04-29 12:31 | 36.90468 | -85.22037 | 30890 ft | 462 kts | 181° |
| 2026-04-29 12:31 | 36.87281 | -85.21498 | 31165 ft | 463 kts | 181° |
| 2026-04-29 12:32 | 36.84085 | -85.20911 | 31431 ft | 465 kts | 180° |
| 2026-04-29 12:32 | 36.80844 | -85.20259 | 31782 ft | 465 kts | 180° |
| 2026-04-29 12:32 | 36.77660 | -85.19599 | 32148 ft | 464 kts | 179° |
| 2026-04-29 12:32 | 36.74479 | -85.18938 | 32458 ft | 463 kts | 180° |
| 2026-04-29 12:33 | 36.71294 | -85.18284 | 32728 ft | 464 kts | 180° |
| 2026-04-29 12:33 | 36.68105 | -85.17637 | 32959 ft | 465 kts | 180° |
| 2026-04-29 12:33 | 36.64944 | -85.17002 | 32894 ft | 467 kts | 180° |
| 2026-04-29 12:34 | 36.58510 | -85.15711 | 32917 ft | 465 kts | 180° |
| 2026-04-29 12:34 | 36.52175 | -85.14443 | 32940 ft | 464 kts | 180° |
| 2026-04-29 12:35 | 36.45794 | -85.13169 | 32924 ft | 464 kts | 180° |
| 2026-04-29 12:35 | 36.39421 | -85.11897 | 32908 ft | 464 kts | 179° |
| 2026-04-29 12:36 | 36.33148 | -85.09768 | 32925 ft | 488 kts | 155° |
| 2026-04-29 12:36 | 36.30474 | -85.07077 | 32937 ft | 504 kts | 137° |
| 2026-04-29 12:36 | 36.28472 | -85.03461 | 32932 ft | 517 kts | 118° |
| 2026-04-29 12:37 | 36.25762 | -84.95176 | 32944 ft | 520 kts | 114° |
| 2026-04-29 12:37 | 36.23149 | -84.86824 | 32944 ft | 521 kts | 115° |
| 2026-04-29 12:38 | 36.20451 | -84.78496 | 32948 ft | 521 kts | 115° |
| 2026-04-29 12:38 | 36.17701 | -84.70207 | 32958 ft | 520 kts | 116° |
| 2026-04-29 12:39 | 36.14938 | -84.61936 | 32963 ft | 520 kts | 116° |
| 2026-04-29 12:39 | 36.12175 | -84.53671 | 32938 ft | 520 kts | 115° |
| 2026-04-29 12:40 | 36.09415 | -84.45425 | 32954 ft | 518 kts | 115° |
| 2026-04-29 12:40 | 36.06660 | -84.37212 | 32933 ft | 516 kts | 115° |
| 2026-04-29 12:41 | 36.03912 | -84.29047 | 32948 ft | 514 kts | 116° |
| 2026-04-29 12:41 | 36.01161 | -84.20895 | 32951 ft | 513 kts | 116° |
| 2026-04-29 12:42 | 35.98411 | -84.12767 | 32980 ft | 513 kts | 116° |
| 2026-04-29 12:42 | 35.95657 | -84.04648 | 32982 ft | 513 kts | 116° |
| 2026-04-29 12:43 | 35.92894 | -83.96522 | 32991 ft | 514 kts | 116° |
| 2026-04-29 12:43 | 35.89804 | -83.88628 | 32987 ft | 508 kts | 127° |
| 2026-04-29 12:44 | 35.85402 | -83.81944 | 32981 ft | 501 kts | 137° |
| 2026-04-29 12:44 | 35.80785 | -83.75511 | 32975 ft | 502 kts | 136° |
| 2026-04-29 12:45 | 35.76183 | -83.69033 | 32988 ft | 503 kts | 136° |
| 2026-04-29 12:45 | 35.71596 | -83.62512 | 32985 ft | 504 kts | 136° |
| 2026-04-29 12:46 | 35.67008 | -83.55977 | 32977 ft | 505 kts | 136° |
| 2026-04-29 12:46 | 35.62414 | -83.49447 | 32967 ft | 504 kts | 136° |
| 2026-04-29 12:47 | 35.57828 | -83.42944 | 32959 ft | 503 kts | 136° |
| 2026-04-29 12:47 | 35.54026 | -83.37563 | 32973 ft | 501 kts | 136° |
| 2026-04-29 12:48 | 35.49450 | -83.31104 | 32966 ft | 501 kts | 137° |
| 2026-04-29 12:48 | 35.44884 | -83.24669 | 32987 ft | 500 kts | 136° |
| 2026-04-29 12:49 | 35.40321 | -83.18251 | 32985 ft | 498 kts | 136° |
| 2026-04-29 12:49 | 35.35776 | -83.11867 | 33003 ft | 497 kts | 137° |
| 2026-04-29 12:50 | 35.31233 | -83.05499 | 33000 ft | 495 kts | 137° |
| 2026-04-29 12:50 | 35.26703 | -82.99162 | 32999 ft | 494 kts | 137° |
| 2026-04-29 12:51 | 35.22172 | -82.92836 | 33011 ft | 494 kts | 137° |
| 2026-04-29 12:51 | 35.17632 | -82.86510 | 33011 ft | 495 kts | 137° |
| 2026-04-29 12:52 | 35.13083 | -82.80180 | 33021 ft | 496 kts | 137° |
| 2026-04-29 12:52 | 35.08526 | -82.73852 | 33028 ft | 496 kts | 136° |
| 2026-04-29 12:53 | 35.03961 | -82.67523 | 33020 ft | 496 kts | 136° |
| 2026-04-29 12:53 | 34.99406 | -82.61220 | 33020 ft | 495 kts | 136° |
| 2026-04-29 12:54 | 34.94850 | -82.54925 | 33019 ft | 494 kts | 136° |
| 2026-04-29 12:54 | 34.90306 | -82.48661 | 33017 ft | 493 kts | 136° |
| 2026-04-29 12:55 | 34.85769 | -82.42418 | 33021 ft | 491 kts | 136° |
| 2026-04-29 12:55 | 34.81241 | -82.36198 | 33009 ft | 490 kts | 136° |
| 2026-04-29 12:56 | 34.76719 | -82.29997 | 33031 ft | 490 kts | 136° |
| 2026-04-29 12:56 | 34.72194 | -82.23805 | 33020 ft | 489 kts | 136° |
| 2026-04-29 12:57 | 34.67670 | -82.17623 | 33028 ft | 490 kts | 136° |
| 2026-04-29 12:57 | 34.63133 | -82.11435 | 33038 ft | 491 kts | 136° |
| 2026-04-29 12:58 | 34.58581 | -82.05237 | 33033 ft | 493 kts | 136° |
| 2026-04-29 12:58 | 34.54131 | -81.99187 | 33030 ft | 494 kts | 136° |
| 2026-04-29 12:59 | 34.49547 | -81.92967 | 33028 ft | 495 kts | 137° |
| 2026-04-29 12:59 | 34.47076 | -81.90118 | 33015 ft | 487 kts | 148° |
| 2026-04-29 12:59 | 34.44337 | -81.87738 | 33065 ft | 484 kts | 151° |
| 2026-04-29 13:00 | 34.38733 | -81.83229 | 33061 ft | 484 kts | 152° |
| 2026-04-29 13:00 | 34.33270 | -81.78748 | 33068 ft | 485 kts | 150° |
| 2026-04-29 13:01 | 34.27756 | -81.74102 | 33070 ft | 486 kts | 150° |
| 2026-04-29 13:01 | 34.22491 | -81.69645 | 33059 ft | 486 kts | 150° |
| 2026-04-29 13:02 | 34.17091 | -81.65089 | 33046 ft | 485 kts | 150° |
| 2026-04-29 13:02 | 34.11745 | -81.60613 | 33059 ft | 485 kts | 150° |
| 2026-04-29 13:02 | 34.09176 | -81.58489 | 32534 ft | 493 kts | 150° |
| 2026-04-29 13:03 | 34.06438 | -81.56232 | 31920 ft | 493 kts | 150° |
| 2026-04-29 13:03 | 34.03806 | -81.54058 | 31478 ft | 486 kts | 150° |
| 2026-04-29 13:03 | 34.01227 | -81.51926 | 30919 ft | 483 kts | 150° |
| 2026-04-29 13:03 | 33.98912 | -81.50013 | 30456 ft | 479 kts | 150° |
| 2026-04-29 13:04 | 33.96742 | -81.48220 | 30004 ft | 476 kts | 150° |
| 2026-04-29 13:04 | 33.94412 | -81.46298 | 29459 ft | 472 kts | 150° |
| 2026-04-29 13:04 | 33.92292 | -81.44549 | 28995 ft | 468 kts | 150° |
| 2026-04-29 13:04 | 33.89770 | -81.42484 | 28491 ft | 462 kts | 150° |
| 2026-04-29 13:05 | 33.87536 | -81.40684 | 28036 ft | 458 kts | 150° |
| 2026-04-29 13:05 | 33.85056 | -81.38701 | 27525 ft | 454 kts | 151° |
| 2026-04-29 13:05 | 33.82811 | -81.36910 | 27070 ft | 450 kts | 150° |
| 2026-04-29 13:05 | 33.80649 | -81.35183 | 26635 ft | 447 kts | 150° |
| 2026-04-29 13:06 | 33.78346 | -81.33340 | 26156 ft | 443 kts | 150° |
| 2026-04-29 13:06 | 33.76048 | -81.31500 | 25713 ft | 440 kts | 150° |
| 2026-04-29 13:06 | 33.73977 | -81.29842 | 25304 ft | 437 kts | 150° |
| 2026-04-29 13:06 | 33.72058 | -81.28170 | 24891 ft | 439 kts | 143° |
| 2026-04-29 13:07 | 33.70280 | -81.26140 | 24494 ft | 439 kts | 137° |
| 2026-04-29 13:07 | 33.68705 | -81.24147 | 24111 ft | 438 kts | 136° |
| 2026-04-29 13:07 | 33.67138 | -81.22102 | 23724 ft | 436 kts | 136° |
| 2026-04-29 13:07 | 33.65531 | -81.19993 | 23264 ft | 435 kts | 136° |
| 2026-04-29 13:08 | 33.63942 | -81.17921 | 22829 ft | 432 kts | 136° |
| 2026-04-29 13:08 | 33.62352 | -81.15869 | 22413 ft | 429 kts | 136° |
| 2026-04-29 13:08 | 33.60695 | -81.13757 | 22017 ft | 425 kts | 136° |
| 2026-04-29 13:08 | 33.59046 | -81.11675 | 21606 ft | 422 kts | 136° |
| 2026-04-29 13:09 | 33.57183 | -81.09340 | 21156 ft | 418 kts | 137° |
| 2026-04-29 13:09 | 33.55618 | -81.07388 | 20777 ft | 415 kts | 137° |
| 2026-04-29 13:09 | 33.54046 | -81.05431 | 20407 ft | 411 kts | 137° |
| 2026-04-29 13:09 | 33.52517 | -81.03530 | 20040 ft | 409 kts | 137° |
| 2026-04-29 13:10 | 33.50896 | -81.01515 | 19660 ft | 406 kts | 137° |
| 2026-04-29 13:10 | 33.49355 | -80.99602 | 19328 ft | 405 kts | 137° |
| 2026-04-29 13:10 | 33.47884 | -80.97776 | 18993 ft | 405 kts | 137° |
| 2026-04-29 13:10 | 33.46324 | -80.95842 | 18605 ft | 408 kts | 137° |
| 2026-04-29 13:11 | 33.44811 | -80.93965 | 18201 ft | 411 kts | 137° |
| 2026-04-29 13:11 | 33.43310 | -80.92102 | 17791 ft | 409 kts | 137° |
| 2026-04-29 13:11 | 33.41813 | -80.90246 | 17382 ft | 405 kts | 137° |
| 2026-04-29 13:11 | 33.40343 | -80.88421 | 16956 ft | 400 kts | 137° |
| 2026-04-29 13:12 | 33.38922 | -80.86658 | 16570 ft | 392 kts | 137° |
| 2026-04-29 13:12 | 33.37102 | -80.84402 | 16122 ft | 381 kts | 137° |
| 2026-04-29 13:12 | 33.35689 | -80.82652 | 15777 ft | 374 kts | 137° |
| 2026-04-29 13:12 | 33.34344 | -80.80988 | 15464 ft | 370 kts | 137° |
| 2026-04-29 13:13 | 33.32793 | -80.79073 | 15095 ft | 369 kts | 137° |
| 2026-04-29 13:13 | 33.31458 | -80.77426 | 14775 ft | 368 kts | 137° |
| 2026-04-29 13:13 | 33.30074 | -80.75718 | 14445 ft | 366 kts | 137° |
| 2026-04-29 13:13 | 33.28768 | -80.74105 | 14123 ft | 365 kts | 137° |
| 2026-04-29 13:14 | 33.27437 | -80.72463 | 13790 ft | 364 kts | 137° |
| 2026-04-29 13:14 | 33.26127 | -80.70848 | 13429 ft | 363 kts | 137° |
| 2026-04-29 13:14 | 33.24796 | -80.69208 | 13078 ft | 362 kts | 137° |
| 2026-04-29 13:14 | 33.23537 | -80.67575 | 12731 ft | 362 kts | 131° |
| 2026-04-29 13:15 | 33.22603 | -80.65631 | 12570 ft | 359 kts | 115° |
| 2026-04-29 13:15 | 33.21909 | -80.63599 | 12293 ft | 357 kts | 114° |
| 2026-04-29 13:15 | 33.21247 | -80.61572 | 12025 ft | 355 kts | 113° |
| 2026-04-29 13:15 | 33.20593 | -80.59553 | 11703 ft | 354 kts | 113° |
| 2026-04-29 13:16 | 33.19926 | -80.57504 | 11387 ft | 353 kts | 114° |
| 2026-04-29 13:16 | 33.19265 | -80.55499 | 11071 ft | 352 kts | 114° |
| 2026-04-29 13:16 | 33.18551 | -80.53357 | 10732 ft | 352 kts | 114° |
| 2026-04-29 13:16 | 33.17743 | -80.50952 | 10461 ft | 352 kts | 115° |
| 2026-04-29 13:17 | 33.16915 | -80.48502 | 10270 ft | 346 kts | 115° |
| 2026-04-29 13:17 | 33.16198 | -80.46382 | 10112 ft | 335 kts | 115° |
| 2026-04-29 13:17 | 33.15535 | -80.44425 | 9985 ft | 323 kts | 115° |
| 2026-04-29 13:17 | 33.14903 | -80.42562 | 9778 ft | 314 kts | 115° |
| 2026-04-29 13:18 | 33.14303 | -80.40799 | 9525 ft | 308 kts | 115° |
| 2026-04-29 13:18 | 33.13628 | -80.39122 | 9300 ft | 300 kts | 129° |
| 2026-04-29 13:18 | 33.12596 | -80.37776 | 9004 ft | 290 kts | 146° |
| 2026-04-29 13:18 | 33.11198 | -80.36459 | 8713 ft | 288 kts | 147° |
| 2026-04-29 13:19 | 33.09778 | -80.35138 | 8413 ft | 289 kts | 147° |
| 2026-04-29 13:19 | 33.08199 | -80.33654 | 8086 ft | 289 kts | 147° |
| 2026-04-29 13:19 | 33.06624 | -80.32164 | 7764 ft | 289 kts | 146° |
| 2026-04-29 13:19 | 33.05050 | -80.30670 | 7441 ft | 290 kts | 147° |
| 2026-04-29 13:20 | 33.03464 | -80.29190 | 7108 ft | 290 kts | 147° |
| 2026-04-29 13:20 | 33.01870 | -80.27720 | 6791 ft | 290 kts | 147° |
| 2026-04-29 13:20 | 33.00391 | -80.26357 | 6483 ft | 289 kts | 147° |
| 2026-04-29 13:20 | 32.98819 | -80.24906 | 6137 ft | 283 kts | 147° |
| 2026-04-29 13:21 | 32.97281 | -80.23486 | 5886 ft | 274 kts | 147° |
| 2026-04-29 13:21 | 32.95813 | -80.22128 | 5753 ft | 260 kts | 147° |
| 2026-04-29 13:21 | 32.94422 | -80.20843 | 5629 ft | 246 kts | 147° |
| 2026-04-29 13:21 | 32.93088 | -80.19613 | 5540 ft | 240 kts | 148° |
| 2026-04-29 13:22 | 32.91772 | -80.18403 | 5459 ft | 239 kts | 148° |
| 2026-04-29 13:22 | 32.90441 | -80.17182 | 5281 ft | 246 kts | 148° |
| 2026-04-29 13:22 | 32.89069 | -80.15917 | 5011 ft | 250 kts | 147° |
| 2026-04-29 13:22 | 32.87697 | -80.14646 | 4716 ft | 250 kts | 147° |
| 2026-04-29 13:23 | 32.86320 | -80.13372 | 4437 ft | 251 kts | 147° |
| 2026-04-29 13:23 | 32.84934 | -80.12092 | 4141 ft | 254 kts | 147° |
| 2026-04-29 13:23 | 32.83538 | -80.10833 | 4009 ft | 248 kts | 150° |
| 2026-04-29 13:23 | 32.82154 | -80.09694 | 3983 ft | 236 kts | 151° |
| 2026-04-29 13:24 | 32.80812 | -80.08618 | 3985 ft | 232 kts | 152° |
| 2026-04-29 13:24 | 32.79484 | -80.07555 | 3900 ft | 228 kts | 152° |
| 2026-04-29 13:24 | 32.78171 | -80.06505 | 3651 ft | 228 kts | 152° |
| 2026-04-29 13:24 | 32.76851 | -80.05461 | 3478 ft | 228 kts | 152° |
| 2026-04-29 13:25 | 32.75541 | -80.04429 | 3382 ft | 224 kts | 152° |
| 2026-04-29 13:25 | 32.73036 | -80.02473 | 3223 ft | 207 kts | 152° |
| 2026-04-29 13:25 | 32.71838 | -80.01547 | 3069 ft | 206 kts | 152° |
| 2026-04-29 13:26 | 32.70631 | -80.00612 | 3013 ft | 207 kts | 152° |
| 2026-04-29 13:26 | 32.69434 | -79.99677 | 3000 ft | 206 kts | 152° |
| 2026-04-29 13:26 | 32.68234 | -79.98748 | 2992 ft | 206 kts | 152° |
| 2026-04-29 13:26 | 32.67032 | -79.97821 | 3000 ft | 205 kts | 152° |
| 2026-04-29 13:27 | 32.65864 | -79.96840 | 3000 ft | 210 kts | 140° |
| 2026-04-29 13:27 | 32.65179 | -79.95312 | 3000 ft | 215 kts | 102° |
| 2026-04-29 13:27 | 32.65365 | -79.93561 | 3001 ft | 218 kts | 63° |
| 2026-04-29 13:27 | 32.66194 | -79.92043 | 3023 ft | 224 kts | 52° |
| 2026-04-29 13:28 | 32.67165 | -79.90569 | 2998 ft | 227 kts | 42° |
| 2026-04-29 13:28 | 32.68507 | -79.89710 | 3012 ft | 217 kts | 5° |
| 2026-04-29 13:28 | 32.69997 | -79.89701 | 3015 ft | 216 kts | 351° |
| 2026-04-29 13:28 | 32.71504 | -79.89875 | 3004 ft | 216 kts | 342° |
| 2026-04-29 13:29 | 32.72758 | -79.90683 | 3020 ft | 200 kts | 316° |
| 2026-04-29 13:29 | 32.73902 | -79.91611 | 2989 ft | 197 kts | 324° |
| 2026-04-29 13:29 | 32.75045 | -79.92450 | 2958 ft | 187 kts | 322° |
| 2026-04-29 13:29 | 32.75774 | -79.92994 | 2982 ft | 181 kts | 320° |
| 2026-04-29 13:30 | 32.76835 | -79.93800 | 2900 ft | 183 kts | 321° |
| 2026-04-29 13:30 | 32.77919 | -79.94628 | 2680 ft | 186 kts | 321° |
| 2026-04-29 13:30 | 32.79003 | -79.95452 | 2435 ft | 184 kts | 321° |
| 2026-04-29 13:30 | 32.80072 | -79.96266 | 2191 ft | 181 kts | 321° |
| 2026-04-29 13:31 | 32.81125 | -79.97069 | 1975 ft | 179 kts | 322° |
| 2026-04-29 13:31 | 32.82159 | -79.97855 | 1747 ft | 174 kts | 321° |
| 2026-04-29 13:31 | 32.83156 | -79.98614 | 1534 ft | 164 kts | 322° |
| 2026-04-29 13:31 | 32.84095 | -79.99330 | 1293 ft | 157 kts | 322° |
| 2026-04-29 13:32 | 32.84997 | -80.00017 | 1070 ft | 153 kts | 322° |
| 2026-04-29 13:32 | 32.85905 | -80.00710 | 868 ft | 156 kts | 323° |
| 2026-04-29 13:32 | 32.86813 | -80.01401 | 635 ft | 153 kts | 324° |
| 2026-04-29 13:32 | 32.87703 | -80.02059 | 410 ft | 148 kts | 326° |
| 2026-04-29 13:33 | 32.88552 | -80.02712 | 201 ft | 146 kts | 324° |
| 2026-04-29 13:33 | 32.89424 | -80.03385 | 64 ft | 148 kts | 324° |
| 2026-04-29 13:33 | 32.90184 | -80.03964 | 55 ft | 101 kts | 327° |
| 2026-04-29 13:33 | 32.90585 | -80.04268 | 54 ft | 41 kts | 327° |
| 2026-04-29 13:34 | 32.90757 | -80.04399 | 56 ft | 17 kts | 327° |
| 2026-04-29 13:34 | 32.90811 | -80.04479 | 59 ft | 13 kts | 258° |
| 2026-04-29 13:34 | 32.90761 | -80.04564 | 51 ft | 13 kts | 231° |
| 2026-04-29 13:34 | 32.90704 | -80.04641 | 56 ft | 12 kts | 212° |
| 2026-04-29 13:35 | 32.90629 | -80.04606 | 54 ft | 12 kts | 146° |
| 2026-04-29 13:35 | 32.90547 | -80.04543 | 48 ft | 16 kts | 147° |
| 2026-04-29 13:35 | 32.90447 | -80.04468 | 52 ft | 17 kts | 148° |
| 2026-04-29 13:35 | 32.90336 | -80.04440 | 51 ft | 16 kts | 180° |
| 2026-04-29 13:36 | 32.90225 | -80.04443 | 50 ft | 16 kts | 181° |
| 2026-04-29 13:36 | 32.90118 | -80.04445 | 52 ft | 15 kts | 181° |
| 2026-04-29 13:36 | 32.90003 | -80.04448 | 53 ft | 18 kts | 181° |
| 2026-04-29 13:36 | 32.89870 | -80.04451 | 52 ft | 20 kts | 181° |
| 2026-04-29 13:37 | 32.89753 | -80.04453 | 50 ft | 9 kts | 180° |
| 2026-04-29 13:37 | 32.89698 | -80.04479 | 48 ft | 9 kts | 246° |
| 2026-04-29 13:37 | 32.89696 | -80.04554 | 53 ft | 9 kts | 273° |
| 2026-04-29 13:37 | 32.89689 | -80.04625 | 53 ft | 9 kts | 236° |
| 2026-04-29 13:38 | 32.89639 | -80.04660 | 50 ft | 8 kts | 188° |
| 2026-04-29 13:38 | 32.89581 | -80.04668 | 53 ft | 8 kts | 187° |
| 2026-04-29 13:38 | 32.89543 | -80.04705 | 50 ft | 8 kts | 268° |
| 2026-04-29 13:38 | 32.89547 | -80.04743 | 50 ft | 0 kts | 279° |